Time;durP1;ratioP1;P1;durP2;ratioP2;P2;SDS_P1;SDS_P2;PMS_P1;PMS_P2;Temp;Humidity;BMP_temperature;BMP_pressure;BME280_temperature;BME280_humidity;BME280_pressure;Samples;Min_cycle;Max_cycle;Signal;HPM_P1;HPM_P2
2023/12/03 00:02:05;;;;;;;7.73;4.30;;;;;;;;;;6254215;28;20322;-68
2023/12/03 00:05:09;;;;;;;4.13;3.83;;;;;;;;;;6253619;28;20611;-71
2023/12/03 00:08:13;;;;;;;4.07;3.77;;;;;;;;;;6238342;28;20367;-69
2023/12/03 00:11:18;;;;;;;6.50;4.33;;;;;;;;;;6252970;28;20408;-69
2023/12/03 00:14:22;;;;;;;3.87;3.57;;;;;;;;;;6254193;28;20302;-68
2023/12/03 00:17:26;;;;;;;4.30;3.67;;;;;;;;;;6253781;28;20302;-71
2023/12/03 00:20:31;;;;;;;3.83;3.50;;;;;;;;;;6253663;28;20302;-69
2023/12/03 00:23:35;;;;;;;3.00;2.80;;;;;;;;;;6253592;28;20295;-69
2023/12/03 00:26:40;;;;;;;4.00;3.60;;;;;;;;;;6253217;28;20295;-71
2023/12/03 00:29:44;;;;;;;3.00;2.90;;;;;;;;;;6255200;28;20607;-67
2023/12/03 00:32:47;;;;;;;3.23;2.83;;;;;;;;;;6258086;28;20297;-69
2023/12/03 00:35:51;;;;;;;3.40;3.20;;;;;;;;;;6256675;28;20290;-69
2023/12/03 00:38:55;;;;;;;3.50;3.10;;;;;;;;;;6257698;28;20620;-69
2023/12/03 00:42:01;;;;;;;3.00;2.90;;;;;;;;;;6258037;28;20390;-70
2023/12/03 00:45:05;;;;;;;2.57;2.47;;;;;;;;;;6258227;28;20237;-69
2023/12/03 00:48:09;;;;;;;2.90;2.80;;;;;;;;;;6257354;28;20302;-71
2023/12/03 00:51:13;;;;;;;3.10;3.00;;;;;;;;;;6258129;28;20322;-69
2023/12/03 00:54:17;;;;;;;3.30;3.00;;;;;;;;;;6257361;28;20302;-69
2023/12/03 00:57:22;;;;;;;10.83;5.13;;;;;;;;;;6257848;28;20299;-69
2023/12/03 01:00:27;;;;;;;10.57;5.90;;;;;;;;;;6256665;28;20297;-68
2023/12/03 01:03:31;;;;;;;6.80;3.97;;;;;;;;;;6257332;28;20297;-68
2023/12/03 01:06:34;;;;;;;6.37;4.40;;;;;;;;;;6257794;28;20326;-70
2023/12/03 01:09:38;;;;;;;5.47;4.20;;;;;;;;;;6256946;28;20302;-68
2023/12/03 01:12:44;;;;;;;4.07;3.70;;;;;;;;;;6257434;28;20295;-70
2023/12/03 01:15:49;;;;;;;9.10;4.90;;;;;;;;;;6257318;28;20294;-68
2023/12/03 01:18:53;;;;;;;5.07;3.80;;;;;;;;;;6257127;28;20556;-71
2023/12/03 01:21:57;;;;;;;3.90;3.50;;;;;;;;;;6257345;28;20327;-71
2023/12/03 01:25:00;;;;;;;5.50;3.20;;;;;;;;;;6257196;28;20299;-69
2023/12/03 01:28:06;;;;;;;3.63;3.30;;;;;;;;;;6256539;28;20307;-69
2023/12/03 01:31:10;;;;;;;4.97;3.80;;;;;;;;;;6257802;28;20309;-68
2023/12/03 01:34:14;;;;;;;6.50;4.33;;;;;;;;;;6254898;28;20502;-71
2023/12/03 01:37:18;;;;;;;5.73;5.17;;;;;;;;;;6256926;28;20299;-69
2023/12/03 01:40:22;;;;;;;5.97;4.40;;;;;;;;;;6261804;28;20311;-71
2023/12/03 01:43:27;;;;;;;11.40;5.33;;;;;;;;;;6256392;28;20296;-69
2023/12/03 01:46:31;;;;;;;6.17;4.30;;;;;;;;;;6256607;28;20303;-67
2023/12/03 01:49:36;;;;;;;5.67;4.53;;;;;;;;;;6256303;28;20308;-71
2023/12/03 01:52:40;;;;;;;5.17;4.63;;;;;;;;;;6256673;28;20330;-69
2023/12/03 01:55:44;;;;;;;13.97;6.73;;;;;;;;;;6256966;28;20294;-68
2023/12/03 01:58:50;;;;;;;12.80;6.47;;;;;;;;;;6257002;28;20298;-70
2023/12/03 02:01:54;;;;;;;12.83;7.67;;;;;;;;;;6256622;28;20294;-70
2023/12/03 02:04:58;;;;;;;10.20;5.40;;;;;;;;;;6256481;28;20567;-69
2023/12/03 02:08:03;;;;;;;5.70;4.20;;;;;;;;;;6256488;28;20297;-69
2023/12/03 02:11:07;;;;;;;7.43;5.77;;;;;;;;;;6256747;28;20311;-68
2023/12/03 02:14:13;;;;;;;13.03;6.60;;;;;;;;;;6255776;28;20330;-70
2023/12/03 02:17:16;;;;;;;14.47;6.43;;;;;;;;;;6245193;28;20620;-68
2023/12/03 02:20:20;;;;;;;5.60;3.80;;;;;;;;;;6256513;28;20299;-68
2023/12/03 02:23:28;;;;;;;4.83;4.20;;;;;;;;;;6255538;28;20298;-70
2023/12/03 02:26:32;;;;;;;8.07;5.33;;;;;;;;;;6256121;28;20261;-69
2023/12/03 02:29:36;;;;;;;7.10;4.43;;;;;;;;;;6255304;28;20287;-69
2023/12/03 02:32:39;;;;;;;8.47;4.80;;;;;;;;;;6255704;28;20299;-69
2023/12/03 02:35:43;;;;;;;17.47;7.17;;;;;;;;;;6253906;28;20291;-71
2023/12/03 02:38:48;;;;;;;7.83;5.20;;;;;;;;;;6255085;28;20299;-70
2023/12/03 02:41:52;;;;;;;7.47;4.90;;;;;;;;;;6256181;28;20303;-69
2023/12/03 02:44:56;;;;;;;7.40;4.77;;;;;;;;;;6255088;28;20469;-71
2023/12/03 02:48:00;;;;;;;5.93;3.90;;;;;;;;;;6255047;28;20378;-69
2023/12/03 02:51:05;;;;;;;4.33;3.93;;;;;;;;;;6254963;28;20291;-68
2023/12/03 02:54:10;;;;;;;6.63;4.43;;;;;;;;;;6255016;28;20603;-70
2023/12/03 02:57:14;;;;;;;5.23;4.50;;;;;;;;;;6256019;28;20312;-68
2023/12/03 03:00:18;;;;;;;4.43;3.90;;;;;;;;;;6254970;28;20327;-70
2023/12/03 03:03:22;;;;;;;4.83;4.27;;;;;;;;;;6260110;28;20301;-68
2023/12/03 03:06:26;;;;;;;4.03;3.73;;;;;;;;;;6254333;28;20452;-71
2023/12/03 03:09:32;;;;;;;4.17;3.53;;;;;;;;;;6252890;28;20297;-70
2023/12/03 03:12:36;;;;;;;7.40;5.00;;;;;;;;;;6254862;28;20296;-70
2023/12/03 03:15:39;;;;;;;8.37;5.33;;;;;;;;;;6253735;28;20470;-68
2023/12/03 03:18:43;;;;;;;5.93;4.47;;;;;;;;;;6254815;28;20301;-68
2023/12/03 03:21:47;;;;;;;3.80;3.37;;;;;;;;;;6253370;28;20302;-69
2023/12/03 03:24:53;;;;;;;4.13;3.77;;;;;;;;;;6264745;28;20600;-69
2023/12/03 03:27:57;;;;;;;4.27;3.87;;;;;;;;;;6253336;28;20244;-69
2023/12/03 03:31:01;;;;;;;4.40;4.00;;;;;;;;;;6254120;28;20313;-70
2023/12/03 03:34:05;;;;;;;4.70;4.30;;;;;;;;;;6252046;28;20306;-68
2023/12/03 03:37:09;;;;;;;7.17;4.27;;;;;;;;;;6252504;28;20295;-71
2023/12/03 03:40:15;;;;;;;5.90;4.20;;;;;;;;;;6254754;28;20591;-70
2023/12/03 03:43:19;;;;;;;6.07;4.80;;;;;;;;;;6255181;28;20286;-72
2023/12/03 03:46:23;;;;;;;5.63;4.83;;;;;;;;;;6255239;28;20296;-69
2023/12/03 03:49:27;;;;;;;4.30;3.90;;;;;;;;;;6254774;28;20298;-70
2023/12/03 03:52:31;;;;;;;3.50;3.20;;;;;;;;;;6255868;28;20295;-70
2023/12/03 03:55:36;;;;;;;4.37;4.00;;;;;;;;;;6254581;28;20306;-68
2023/12/03 03:58:40;;;;;;;4.47;3.87;;;;;;;;;;6254895;28;20288;-71
2023/12/03 04:01:44;;;;;;;12.00;5.40;;;;;;;;;;6254579;28;20291;-68
2023/12/03 04:04:48;;;;;;;5.90;4.47;;;;;;;;;;6245065;28;20619;-68
2023/12/03 04:07:52;;;;;;;4.73;3.77;;;;;;;;;;6246425;28;20605;-70
2023/12/03 04:10:57;;;;;;;3.73;3.43;;;;;;;;;;6254497;28;20286;-69
2023/12/03 04:14:01;;;;;;;3.20;3.00;;;;;;;;;;6259477;28;20633;-69
2023/12/03 04:17:05;;;;;;;3.47;3.00;;;;;;;;;;6259349;28;20586;-69
2023/12/03 04:20:10;;;;;;;3.10;3.00;;;;;;;;;;6250121;28;20410;-69
2023/12/03 04:23:14;;;;;;;3.70;3.40;;;;;;;;;;6216695;28;20565;-67
2023/12/03 04:26:19;;;;;;;3.30;3.10;;;;;;;;;;6283510;28;20294;-70
2023/12/03 04:29:23;;;;;;;3.40;3.20;;;;;;;;;;6282027;28;20303;-70
2023/12/03 04:32:26;;;;;;;3.07;2.97;;;;;;;;;;6282837;28;20302;-71
2023/12/03 04:35:30;;;;;;;3.27;3.17;;;;;;;;;;6281840;28;20303;-69
2023/12/03 04:38:34;;;;;;;3.00;2.90;;;;;;;;;;6263960;28;20283;-69
2023/12/03 04:41:39;;;;;;;2.60;2.50;;;;;;;;;;6258942;28;20356;-71
2023/12/03 04:44:43;;;;;;;2.77;2.67;;;;;;;;;;6259377;28;20314;-70
2023/12/03 04:47:47;;;;;;;2.70;2.60;;;;;;;;;;6259189;28;20374;-69
2023/12/03 04:50:51;;;;;;;3.23;3.03;;;;;;;;;;6258523;28;20297;-68
2023/12/03 04:53:54;;;;;;;3.93;3.00;;;;;;;;;;6257531;28;20300;-68
2023/12/03 04:57:00;;;;;;;2.80;2.73;;;;;;;;;;6257061;28;20464;-70
2023/12/03 05:00:07;;;;;;;3.50;2.77;;;;;;;;;;6258499;28;20296;-69
2023/12/03 05:03:10;;;;;;;2.80;2.70;;;;;;;;;;6258529;28;20298;-68
2023/12/03 05:06:15;;;;;;;2.70;2.60;;;;;;;;;;6249023;28;20322;-68
2023/12/03 05:09:19;;;;;;;2.90;2.70;;;;;;;;;;6242094;28;20305;-68
2023/12/03 05:12:24;;;;;;;3.00;2.90;;;;;;;;;;6275820;28;20302;-69
2023/12/03 05:15:28;;;;;;;2.57;2.47;;;;;;;;;;6265196;28;20405;-70
2023/12/03 05:18:32;;;;;;;2.67;2.47;;;;;;;;;;6263667;28;20285;-70
2023/12/03 05:21:36;;;;;;;3.10;3.00;;;;;;;;;;6265730;28;20400;-69
2023/12/03 05:24:40;;;;;;;2.80;2.70;;;;;;;;;;6260366;28;20294;-71
2023/12/03 05:27:45;;;;;;;2.77;2.67;;;;;;;;;;6261418;28;20305;-69
2023/12/03 05:30:49;;;;;;;2.80;2.70;;;;;;;;;;6262545;28;20302;-69
2023/12/03 05:33:53;;;;;;;3.50;2.90;;;;;;;;;;6262372;28;20294;-69
2023/12/03 05:36:57;;;;;;;3.03;2.83;;;;;;;;;;6266307;28;22204;-68
2023/12/03 05:40:01;;;;;;;2.57;2.47;;;;;;;;;;6257231;28;20552;-69
2023/12/03 05:43:06;;;;;;;2.67;2.57;;;;;;;;;;6237562;28;20296;-69
2023/12/03 05:46:10;;;;;;;2.80;2.70;;;;;;;;;;6242384;28;20336;-68
2023/12/03 05:49:14;;;;;;;2.80;2.70;;;;;;;;;;6257219;28;20340;-68
2023/12/03 05:52:18;;;;;;;2.40;2.40;;;;;;;;;;6258667;28;20286;-68
2023/12/03 05:55:22;;;;;;;2.33;2.33;;;;;;;;;;6258413;28;20297;-69
2023/12/03 05:58:27;;;;;;;2.50;2.50;;;;;;;;;;6258583;28;20285;-68
2023/12/03 06:01:31;;;;;;;2.60;2.50;;;;;;;;;;6258169;28;20296;-69
2023/12/03 06:04:35;;;;;;;2.63;2.53;;;;;;;;;;6257601;28;20322;-68
2023/12/03 06:07:39;;;;;;;2.50;2.50;;;;;;;;;;6258268;28;20494;-70
2023/12/03 06:10:43;;;;;;;2.63;2.57;;;;;;;;;;6260338;28;20317;-69
2023/12/03 06:13:52;;;;;;;2.70;2.50;;;;;;;;;;6282697;28;20364;-69
2023/12/03 06:16:56;;;;;;;2.60;2.50;;;;;;;;;;6282479;28;20305;-69
2023/12/03 06:19:59;;;;;;;2.77;2.67;;;;;;;;;;6281739;28;20302;-69
2023/12/03 06:23:04;;;;;;;2.37;2.30;;;;;;;;;;6282189;28;20619;-70
2023/12/03 06:26:09;;;;;;;2.43;2.40;;;;;;;;;;6281674;28;20590;-70
2023/12/03 06:29:14;;;;;;;3.07;2.90;;;;;;;;;;6279716;28;20391;-68
2023/12/03 06:32:18;;;;;;;2.60;2.50;;;;;;;;;;6282360;28;20297;-71
2023/12/03 06:35:22;;;;;;;2.70;2.60;;;;;;;;;;6279319;28;20550;-68
2023/12/03 06:38:26;;;;;;;2.93;2.70;;;;;;;;;;6281386;28;20293;-69
2023/12/03 06:41:30;;;;;;;2.60;2.37;;;;;;;;;;6281866;28;20344;-69
2023/12/03 06:44:35;;;;;;;2.70;2.70;;;;;;;;;;6279839;28;20504;-69
2023/12/03 06:47:47;;;;;;;2.63;2.50;;;;;;;;;;6281124;28;20310;-68
2023/12/03 06:50:51;;;;;;;2.83;2.73;;;;;;;;;;6280909;28;20480;-67
2023/12/03 06:53:55;;;;;;;2.63;2.53;;;;;;;;;;6281362;28;20293;-68
2023/12/03 06:56:59;;;;;;;2.97;2.83;;;;;;;;;;6281056;28;20490;-70
2023/12/03 07:00:06;;;;;;;2.70;2.60;;;;;;;;;;6280773;28;20587;-69
2023/12/03 07:03:10;;;;;;;2.30;2.30;;;;;;;;;;6281344;28;20600;-74
2023/12/03 07:06:14;;;;;;;2.80;2.60;;;;;;;;;;6280992;28;20292;-70
2023/12/03 07:09:18;;;;;;;2.73;2.70;;;;;;;;;;6274641;28;20290;-69
2023/12/03 07:12:42;;;;;;;2.70;2.63;;;;;;;;;;6276595;28;20607;-68
2023/12/03 07:15:47;;;;;;;2.70;2.60;;;;;;;;;;6280959;28;20301;-69
2023/12/03 07:18:51;;;;;;;2.27;2.27;;;;;;;;;;6281338;28;20288;-69
2023/12/03 07:21:55;;;;;;;2.90;2.80;;;;;;;;;;6281211;28;20316;-69
2023/12/03 07:24:58;;;;;;;2.80;2.77;;;;;;;;;;6280490;28;20487;-69
2023/12/03 07:28:02;;;;;;;2.80;2.70;;;;;;;;;;6279660;28;20500;-68
2023/12/03 07:31:09;;;;;;;2.50;2.50;;;;;;;;;;6280176;28;20342;-68
2023/12/03 07:34:13;;;;;;;2.50;2.50;;;;;;;;;;6278390;28;20564;-69
2023/12/03 07:37:17;;;;;;;2.80;2.60;;;;;;;;;;6280536;28;20308;-69
2023/12/03 07:40:20;;;;;;;2.60;2.50;;;;;;;;;;6282925;28;20314;-71
2023/12/03 07:43:24;;;;;;;2.73;2.63;;;;;;;;;;6285534;28;20522;-70
2023/12/03 07:46:30;;;;;;;2.60;2.53;;;;;;;;;;6286547;28;20653;-67
2023/12/03 07:49:33;;;;;;;2.70;2.60;;;;;;;;;;6283919;28;20243;-68
2023/12/03 07:52:37;;;;;;;3.80;2.43;;;;;;;;;;6286171;28;20305;-69
2023/12/03 07:55:41;;;;;;;2.50;2.40;;;;;;;;;;6285358;28;20304;-69
2023/12/03 07:58:45;;;;;;;2.37;2.30;;;;;;;;;;6285915;28;20301;-71
2023/12/03 08:01:50;;;;;;;2.77;2.67;;;;;;;;;;6285401;28;20327;-68
2023/12/03 08:04:54;;;;;;;3.00;2.87;;;;;;;;;;6285081;28;20287;-70
2023/12/03 08:07:59;;;;;;;2.80;2.70;;;;;;;;;;6285861;28;20290;-69
2023/12/03 08:11:03;;;;;;;2.40;2.40;;;;;;;;;;6269832;28;20314;-69
2023/12/03 08:14:07;;;;;;;2.90;2.80;;;;;;;;;;6285020;28;20305;-70
2023/12/03 08:17:12;;;;;;;2.90;2.80;;;;;;;;;;6285068;28;20292;-69
2023/12/03 08:20:16;;;;;;;2.67;2.57;;;;;;;;;;6284801;28;20283;-71
2023/12/03 08:23:20;;;;;;;2.50;2.40;;;;;;;;;;6285451;28;20303;-70
2023/12/03 08:26:24;;;;;;;3.07;2.80;;;;;;;;;;6284505;28;20310;-69
2023/12/03 08:29:29;;;;;;;3.17;3.00;;;;;;;;;;6284550;28;20322;-70
2023/12/03 08:32:34;;;;;;;2.77;2.67;;;;;;;;;;6285321;28;20298;-68
2023/12/03 08:35:38;;;;;;;2.67;2.57;;;;;;;;;;6282666;28;20286;-68
2023/12/03 08:38:43;;;;;;;2.90;2.80;;;;;;;;;;6283852;28;20282;-68
2023/12/03 08:41:47;;;;;;;2.77;2.67;;;;;;;;;;6284371;28;20536;-70
2023/12/03 08:44:51;;;;;;;2.50;2.47;;;;;;;;;;6284171;28;20294;-69
2023/12/03 08:47:58;;;;;;;2.80;2.70;;;;;;;;;;6284792;28;20254;-69
2023/12/03 08:51:02;;;;;;;2.73;2.63;;;;;;;;;;6283427;28;20297;-69
2023/12/03 08:54:06;;;;;;;2.37;2.33;;;;;;;;;;6283962;28;20302;-69
2023/12/03 08:57:09;;;;;;;2.60;2.60;;;;;;;;;;6284038;28;20289;-69
2023/12/03 09:00:15;;;;;;;2.70;2.70;;;;;;;;;;6283985;28;20302;-69
2023/12/03 09:03:21;;;;;;;2.67;2.57;;;;;;;;;;6284623;28;20286;-68
2023/12/03 09:06:25;;;;;;;2.97;2.80;;;;;;;;;;6283584;28;20295;-69
2023/12/03 09:09:29;;;;;;;2.80;2.70;;;;;;;;;;6274173;28;20496;-70
2023/12/03 09:12:33;;;;;;;3.00;2.90;;;;;;;;;;6262275;28;20298;-70
2023/12/03 09:15:37;;;;;;;2.57;2.57;;;;;;;;;;6258971;28;20306;-70
2023/12/03 09:18:43;;;;;;;3.43;3.33;;;;;;;;;;6258925;28;20295;-69
2023/12/03 09:21:47;;;;;;;3.40;3.07;;;;;;;;;;6259437;28;20290;-69
2023/12/03 09:24:51;;;;;;;3.70;3.53;;;;;;;;;;6258998;28;20299;-69
2023/12/03 09:27:54;;;;;;;3.23;3.13;;;;;;;;;;6259003;28;20318;-69
2023/12/03 09:30:58;;;;;;;3.63;3.23;;;;;;;;;;6258220;28;20576;-69
2023/12/03 09:34:04;;;;;;;2.60;2.60;;;;;;;;;;6256544;28;20334;-69
2023/12/03 09:37:07;;;;;;;3.73;2.90;;;;;;;;;;6258522;28;20306;-69
2023/12/03 09:40:12;;;;;;;3.33;2.90;;;;;;;;;;6258083;28;20630;-69
2023/12/03 09:43:19;;;;;;;3.30;3.20;;;;;;;;;;6258721;28;20298;-68
2023/12/03 09:46:24;;;;;;;3.30;3.10;;;;;;;;;;6258133;28;20623;-70
2023/12/03 09:49:30;;;;;;;3.23;3.03;;;;;;;;;;6257423;28;20294;-71
2023/12/03 09:52:36;;;;;;;2.87;2.87;;;;;;;;;;6258430;28;20315;-69
2023/12/03 09:55:41;;;;;;;2.80;2.70;;;;;;;;;;6257968;28;20284;-70
2023/12/03 09:58:46;;;;;;;3.97;3.10;;;;;;;;;;6257766;28;20533;-70
2023/12/03 10:01:50;;;;;;;2.87;2.70;;;;;;;;;;6257517;28;20292;-69
2023/12/03 10:04:56;;;;;;;3.17;3.07;;;;;;;;;;6257498;28;20303;-69
2023/12/03 10:08:02;;;;;;;3.87;3.57;;;;;;;;;;6257909;28;20302;-69
2023/12/03 10:11:07;;;;;;;3.03;2.93;;;;;;;;;;6263738;28;20292;-72
2023/12/03 10:14:12;;;;;;;3.50;3.30;;;;;;;;;;6282450;28;20285;-70
2023/12/03 10:17:19;;;;;;;3.10;2.90;;;;;;;;;;6282239;28;20303;-70
2023/12/03 10:20:28;;;;;;;3.50;3.30;;;;;;;;;;6282659;28;20287;-71
2023/12/03 10:23:34;;;;;;;3.30;3.10;;;;;;;;;;6232683;28;20288;-68
2023/12/03 10:26:38;;;;;;;3.53;3.23;;;;;;;;;;6242033;28;20298;-74
2023/12/03 10:29:42;;;;;;;3.10;3.00;;;;;;;;;;6256407;28;20307;-68
2023/12/03 10:32:46;;;;;;;3.20;3.00;;;;;;;;;;6257260;28;20247;-68
2023/12/03 10:35:51;;;;;;;3.13;3.00;;;;;;;;;;6255266;28;20310;-68
2023/12/03 10:38:55;;;;;;;2.83;2.67;;;;;;;;;;6257020;28;20556;-68
2023/12/03 10:41:59;;;;;;;3.23;3.03;;;;;;;;;;6257277;28;20311;-69
2023/12/03 10:45:07;;;;;;;2.93;2.83;;;;;;;;;;6255393;28;20298;-70
2023/12/03 10:48:12;;;;;;;3.13;2.97;;;;;;;;;;6256987;28;20300;-69
2023/12/03 10:51:17;;;;;;;3.03;2.93;;;;;;;;;;6255546;28;20230;-71
2023/12/03 10:54:21;;;;;;;3.87;3.67;;;;;;;;;;6256872;28;20319;-71
2023/12/03 10:57:28;;;;;;;3.03;2.93;;;;;;;;;;6257490;28;20306;-69
2023/12/03 11:00:37;;;;;;;3.40;3.10;;;;;;;;;;6256747;28;20347;-69
2023/12/03 11:03:55;;;;;;;3.13;3.03;;;;;;;;;;6257236;28;20294;-69
2023/12/03 11:07:02;;;;;;;3.60;3.40;;;;;;;;;;6256484;28;20320;-69
2023/12/03 11:10:07;;;;;;;3.40;3.30;;;;;;;;;;6256171;28;20303;-68
2023/12/03 11:13:12;;;;;;;3.50;3.30;;;;;;;;;;6280230;28;20321;-69
2023/12/03 11:16:16;;;;;;;3.30;3.00;;;;;;;;;;6280808;28;20298;-69
2023/12/03 11:19:21;;;;;;;3.73;3.10;;;;;;;;;;6281212;28;20302;-68
2023/12/03 11:22:38;;;;;;;4.80;3.20;;;;;;;;;;6281463;28;20302;-71
2023/12/03 11:25:46;;;;;;;3.37;3.23;;;;;;;;;;6281048;28;20306;-69
2023/12/03 11:28:53;;;;;;;3.43;3.17;;;;;;;;;;6280827;28;20302;-71
2023/12/03 11:32:01;;;;;;;3.27;3.17;;;;;;;;;;6281194;28;20482;-71
2023/12/03 11:35:08;;;;;;;3.13;3.03;;;;;;;;;;6279068;28;20386;-71
2023/12/03 11:38:30;;;;;;;3.00;2.90;;;;;;;;;;6281225;28;20321;-71
2023/12/03 11:41:38;;;;;;;3.70;3.50;;;;;;;;;;6280048;28;20321;-68
2023/12/03 11:44:42;;;;;;;3.60;3.30;;;;;;;;;;6280458;28;20282;-69
2023/12/03 11:47:46;;;;;;;3.00;2.80;;;;;;;;;;6281162;28;20251;-69
2023/12/03 11:50:51;;;;;;;3.27;3.07;;;;;;;;;;6281240;28;20294;-69
2023/12/03 11:54:01;;;;;;;3.47;3.17;;;;;;;;;;6280656;28;20286;-68
2023/12/03 11:57:13;;;;;;;3.30;3.10;;;;;;;;;;6280776;28;20361;-70
2023/12/03 12:00:17;;;;;;;2.90;2.80;;;;;;;;;;6280690;28;20554;-69
2023/12/03 12:03:23;;;;;;;3.37;3.00;;;;;;;;;;6281117;28;20298;-69
2023/12/03 12:06:27;;;;;;;3.23;3.13;;;;;;;;;;6280298;28;20290;-68
2023/12/03 12:09:32;;;;;;;3.67;3.47;;;;;;;;;;6272172;28;20287;-69
2023/12/03 12:12:37;;;;;;;3.53;3.20;;;;;;;;;;6274878;28;20244;-69
2023/12/03 12:15:43;;;;;;;3.17;3.07;;;;;;;;;;6280509;28;20511;-69
2023/12/03 12:18:48;;;;;;;3.30;3.10;;;;;;;;;;6280104;28;20370;-69
2023/12/03 12:21:53;;;;;;;2.90;2.70;;;;;;;;;;6280645;28;20302;-68
2023/12/03 12:24:58;;;;;;;3.40;3.20;;;;;;;;;;6281006;28;20302;-68
2023/12/03 12:28:02;;;;;;;3.43;3.23;;;;;;;;;;6285192;28;20316;-67
2023/12/03 12:31:06;;;;;;;3.37;3.27;;;;;;;;;;6284764;28;20571;-69
2023/12/03 12:34:11;;;;;;;2.93;2.83;;;;;;;;;;6282647;28;20299;-67
2023/12/03 12:37:15;;;;;;;2.73;2.63;;;;;;;;;;6284757;28;20297;-68
2023/12/03 12:40:20;;;;;;;3.40;3.13;;;;;;;;;;6284442;28;20558;-69
2023/12/03 12:43:24;;;;;;;3.40;3.20;;;;;;;;;;6284122;28;20326;-68
2023/12/03 12:46:28;;;;;;;3.00;2.90;;;;;;;;;;6284400;28;20298;-69
2023/12/03 12:49:32;;;;;;;3.50;3.20;;;;;;;;;;6284283;28;20310;-69
2023/12/03 12:52:36;;;;;;;3.10;2.90;;;;;;;;;;6284412;28;20298;-68
2023/12/03 12:55:42;;;;;;;2.80;2.80;;;;;;;;;;6284222;28;20301;-70
2023/12/03 12:58:45;;;;;;;3.23;2.93;;;;;;;;;;6284045;28;20302;-68
2023/12/03 13:01:50;;;;;;;3.40;3.07;;;;;;;;;;6284927;28;20290;-68
2023/12/03 13:04:54;;;;;;;2.70;2.60;;;;;;;;;;6283792;28;20297;-69
2023/12/03 13:07:57;;;;;;;3.23;3.03;;;;;;;;;;6284349;28;20494;-68
2023/12/03 13:11:03;;;;;;;2.83;2.70;;;;;;;;;;6268866;28;20301;-70
2023/12/03 13:14:07;;;;;;;3.00;2.90;;;;;;;;;;6282129;28;20643;-68
2023/12/03 13:17:10;;;;;;;3.20;3.10;;;;;;;;;;6283705;28;20473;-69
2023/12/03 13:20:14;;;;;;;3.33;3.13;;;;;;;;;;6282415;28;20289;-69
2023/12/03 13:23:18;;;;;;;3.10;3.00;;;;;;;;;;6283558;28;20289;-68
2023/12/03 13:26:24;;;;;;;3.30;3.10;;;;;;;;;;6283927;28;20306;-69
2023/12/03 13:29:28;;;;;;;2.90;2.60;;;;;;;;;;6282811;28;20317;-69
2023/12/03 13:32:33;;;;;;;3.30;3.10;;;;;;;;;;6283682;28;20317;-71
2023/12/03 13:35:37;;;;;;;2.67;2.67;;;;;;;;;;6281208;28;20618;-69
2023/12/03 13:38:41;;;;;;;3.13;3.00;;;;;;;;;;6282223;28;20274;-68
2023/12/03 13:41:46;;;;;;;3.50;3.30;;;;;;;;;;6283538;28;20255;-70
2023/12/03 13:44:50;;;;;;;2.80;2.80;;;;;;;;;;6283490;28;20306;-70
2023/12/03 13:47:54;;;;;;;2.80;2.60;;;;;;;;;;6283471;28;20257;-69
2023/12/03 13:50:58;;;;;;;3.00;2.90;;;;;;;;;;6283324;28;20293;-67
2023/12/03 13:54:02;;;;;;;3.30;3.20;;;;;;;;;;6282728;28;20310;-68
2023/12/03 13:57:07;;;;;;;3.20;2.97;;;;;;;;;;6283091;28;20309;-68
2023/12/03 14:00:12;;;;;;;3.23;3.00;;;;;;;;;;6282695;28;20321;-68
2023/12/03 14:03:18;;;;;;;2.70;2.60;;;;;;;;;;6282733;28;20297;-69
2023/12/03 14:06:22;;;;;;;2.87;2.77;;;;;;;;;;6282307;28;20309;-70
2023/12/03 14:09:26;;;;;;;3.33;3.03;;;;;;;;;;6274417;28;20351;-68
2023/12/03 14:12:31;;;;;;;3.10;2.93;;;;;;;;;;6275672;28;20618;-68
2023/12/03 14:15:35;;;;;;;3.20;3.10;;;;;;;;;;6282402;28;20294;-68
2023/12/03 14:18:39;;;;;;;3.10;3.00;;;;;;;;;;6281862;28;20302;-68
2023/12/03 14:21:43;;;;;;;2.70;2.60;;;;;;;;;;6282441;28;20299;-70
2023/12/03 14:24:47;;;;;;;4.53;3.07;;;;;;;;;;6281696;28;20322;-69
2023/12/03 14:27:52;;;;;;;3.23;3.13;;;;;;;;;;6282091;28;20314;-68
2023/12/03 14:30:57;;;;;;;2.83;2.63;;;;;;;;;;6280323;28;20302;-68
2023/12/03 14:34:01;;;;;;;3.00;2.80;;;;;;;;;;6279856;28;20326;-68
2023/12/03 14:37:06;;;;;;;3.10;3.00;;;;;;;;;;6282064;28;20243;-68
2023/12/03 14:40:13;;;;;;;3.07;2.97;;;;;;;;;;6281282;28;20300;-70
2023/12/03 14:43:19;;;;;;;2.80;2.70;;;;;;;;;;6281410;28;20432;-67
2023/12/03 14:46:24;;;;;;;2.93;2.77;;;;;;;;;;6281619;28;20482;-70
2023/12/03 14:49:27;;;;;;;3.57;3.40;;;;;;;;;;6280480;28;20478;-68
2023/12/03 14:52:32;;;;;;;3.23;3.03;;;;;;;;;;6281470;28;20310;-71
2023/12/03 14:55:36;;;;;;;2.53;2.43;;;;;;;;;;6281216;28;20322;-69
2023/12/03 14:58:42;;;;;;;3.00;2.90;;;;;;;;;;6280860;28;20458;-70
2023/12/03 15:01:46;;;;;;;3.03;2.83;;;;;;;;;;6282263;28;20297;-69
2023/12/03 15:04:50;;;;;;;3.03;2.93;;;;;;;;;;6280783;28;20378;-69
2023/12/03 15:07:56;;;;;;;2.40;2.40;;;;;;;;;;6279696;28;20598;-68
2023/12/03 15:11:00;;;;;;;2.80;2.60;;;;;;;;;;6264389;28;20325;-69
2023/12/03 15:14:05;;;;;;;2.73;2.63;;;;;;;;;;6280644;28;20618;-70
2023/12/03 15:17:09;;;;;;;2.83;2.67;;;;;;;;;;6281081;28;20304;-69
2023/12/03 15:20:13;;;;;;;2.90;2.80;;;;;;;;;;6280689;28;20301;-68
2023/12/03 15:23:17;;;;;;;2.80;2.70;;;;;;;;;;6280940;28;20290;-67
2023/12/03 15:26:21;;;;;;;3.87;2.50;;;;;;;;;;6280820;28;20303;-68
2023/12/03 15:29:26;;;;;;;2.70;2.57;;;;;;;;;;6280336;28;20293;-68
2023/12/03 15:32:31;;;;;;;3.10;2.90;;;;;;;;;;6281718;28;20320;-70
2023/12/03 15:35:35;;;;;;;2.50;2.50;;;;;;;;;;6263802;28;20269;-68
2023/12/03 15:38:39;;;;;;;3.10;2.90;;;;;;;;;;6240652;28;20279;-68
2023/12/03 15:41:43;;;;;;;2.73;2.63;;;;;;;;;;6231621;28;20531;-69
2023/12/03 15:44:48;;;;;;;2.70;2.60;;;;;;;;;;6231300;28;20301;-70
2023/12/03 15:47:52;;;;;;;3.07;2.97;;;;;;;;;;6231924;28;20255;-69
2023/12/03 15:50:56;;;;;;;2.63;2.53;;;;;;;;;;6231589;28;20345;-68
2023/12/03 15:54:00;;;;;;;2.90;2.80;;;;;;;;;;6231156;28;20299;-66
2023/12/03 15:57:05;;;;;;;2.80;2.70;;;;;;;;;;6232218;28;20297;-68
2023/12/03 16:00:15;;;;;;;2.60;2.50;;;;;;;;;;6231999;28;20294;-67
2023/12/03 16:03:19;;;;;;;2.77;2.67;;;;;;;;;;6235838;28;20294;-65
2023/12/03 16:06:24;;;;;;;3.10;3.00;;;;;;;;;;6235697;28;20305;-68
2023/12/03 16:09:28;;;;;;;2.67;2.57;;;;;;;;;;6243454;28;20297;-67
2023/12/03 16:12:32;;;;;;;2.80;2.70;;;;;;;;;;6260193;28;20551;-67
2023/12/03 16:15:37;;;;;;;2.80;2.70;;;;;;;;;;6259873;28;20291;-67
2023/12/03 16:18:41;;;;;;;3.17;2.97;;;;;;;;;;6260104;28;20302;-67
2023/12/03 16:21:45;;;;;;;2.90;2.80;;;;;;;;;;6260374;28;20448;-68
2023/12/03 16:24:49;;;;;;;2.87;2.77;;;;;;;;;;6259852;28;20467;-69
2023/12/03 16:27:53;;;;;;;3.10;2.90;;;;;;;;;;6245132;28;20312;-70
2023/12/03 16:30:59;;;;;;;2.80;2.70;;;;;;;;;;6252375;28;20298;-70
2023/12/03 16:34:03;;;;;;;3.20;3.00;;;;;;;;;;6257532;28;20454;-68
2023/12/03 16:37:07;;;;;;;3.20;3.10;;;;;;;;;;6259675;28;20477;-69
2023/12/03 16:40:17;;;;;;;3.07;2.97;;;;;;;;;;6260213;28;20297;-69
2023/12/03 16:43:24;;;;;;;3.07;2.97;;;;;;;;;;6259956;28;20311;-70
2023/12/03 16:46:29;;;;;;;2.83;2.73;;;;;;;;;;6259965;28;20583;-69
2023/12/03 16:53:05;;;;;;;2.93;2.83;;;;;;;;;;6048393;23;20294;-69
2023/12/03 16:56:09;;;;;;;3.03;2.83;;;;;;;;;;6046337;29;20342;-69
2023/12/03 16:59:13;;;;;;;2.87;2.67;;;;;;;;;;6046412;29;20546;-69
2023/12/03 17:02:22;;;;;;;3.23;3.03;;;;;;;;;;6046231;29;20355;-68
2023/12/03 17:05:26;;;;;;;3.20;3.00;;;;;;;;;;6046451;29;20321;-69
2023/12/03 17:08:30;;;;;;;3.83;3.10;;;;;;;;;;6035578;29;20301;-70
2023/12/03 17:11:33;;;;;;;2.77;2.57;;;;;;;;;;6045843;29;20303;-68
2023/12/03 17:14:37;;;;;;;3.57;3.13;;;;;;;;;;6046018;29;20304;-68
2023/12/03 17:17:43;;;;;;;3.40;3.20;;;;;;;;;;6046357;29;20296;-69
2023/12/03 17:20:47;;;;;;;3.77;3.50;;;;;;;;;;6045777;29;20316;-69
2023/12/03 17:23:52;;;;;;;3.30;3.10;;;;;;;;;;6045775;29;20308;-69
2023/12/03 17:26:56;;;;;;;3.50;3.30;;;;;;;;;;6046199;29;20296;-70
2023/12/03 17:30:00;;;;;;;3.13;3.03;;;;;;;;;;6045808;29;20596;-70
2023/12/03 17:33:05;;;;;;;3.53;2.80;;;;;;;;;;6046055;29;20295;-67
2023/12/03 17:36:10;;;;;;;3.57;3.27;;;;;;;;;;6049982;29;20307;-71
2023/12/03 17:39:14;;;;;;;3.60;3.30;;;;;;;;;;6045224;29;20375;-72
2023/12/03 17:42:18;;;;;;;3.00;2.90;;;;;;;;;;6045019;29;20597;-71
2023/12/03 17:45:25;;;;;;;3.50;3.30;;;;;;;;;;6045300;29;20479;-70
2023/12/03 17:48:30;;;;;;;8.23;5.07;;;;;;;;;;6044737;29;20462;-71
2023/12/03 17:51:35;;;;;;;4.00;3.57;;;;;;;;;;6044388;29;20468;-71
2023/12/03 17:54:39;;;;;;;3.83;3.53;;;;;;;;;;6044492;29;20304;-70
2023/12/03 17:57:43;;;;;;;3.63;3.43;;;;;;;;;;6045485;29;20300;-71
2023/12/03 18:00:48;;;;;;;3.30;3.20;;;;;;;;;;6030014;29;20304;-70
2023/12/03 18:03:53;;;;;;;3.60;3.30;;;;;;;;;;6021415;29;20316;-69
2023/12/03 18:06:57;;;;;;;3.83;3.53;;;;;;;;;;6021859;29;20303;-70
2023/12/03 18:10:03;;;;;;;4.90;3.43;;;;;;;;;;6021442;29;20295;-69
2023/12/03 18:13:07;;;;;;;3.47;3.17;;;;;;;;;;6021836;29;20308;-67
2023/12/03 18:16:11;;;;;;;3.20;3.00;;;;;;;;;;6021075;29;20481;-68
2023/12/03 18:19:17;;;;;;;3.27;3.07;;;;;;;;;;6021398;29;20302;-68
2023/12/03 18:22:21;;;;;;;3.00;2.90;;;;;;;;;;6021253;29;20291;-68
2023/12/03 18:25:25;;;;;;;3.90;3.60;;;;;;;;;;6020977;29;20428;-68
2023/12/03 18:28:29;;;;;;;3.33;3.10;;;;;;;;;;6021171;29;20300;-68
2023/12/03 18:31:33;;;;;;;3.57;3.33;;;;;;;;;;6022129;29;20312;-68